Aérodrome :
LOGIN :

S'inscrire | Disclaimer

   EN    FR    IT 

 










Légende :    VFR   VFR Marginal   IFR   IFR Intensif   IFR Très Intensif
Visi : 
Plafond : 
>= 8 km
>= 3000ft
5 à 8 km
1000 à 3000 ft
1500m à 5 km
500 à 1000 ft
800 à 1500m
200 à 500 ft
< 800m
< 200 ft
Symboles :   Orages  Brouillard  Fortes neiges  Fortes précipitations  Vent > 20 kt
SIGMETs :   Divers  Orages  Givrage  Turbulence  Onde Orograph.  Cendres Volcan.







- Altitude de l'aérodrome : 6 ft
- Code IATA : PSA


LIRP - Galileo Galilei Pisa

DERNIER METAR :
  • 171545Z 18004KT 9999 FEW080 07/04 Q1020 NOSIG

METARs EXPIRÉS :
  • 171515Z 19004KT 9999 FEW080 09/04 Q1020 NOSIG
  • 171445Z 13004KT 9999 SCT080 10/04 Q1019 NOSIG
  • 171415Z 17003KT 9999 SCT080 09/06 Q1019 NOSIG
  • 171345Z 26002KT 9999 FEW060 BKN070 09/04 Q1018 NOSIG
  • 171315Z 27003KT 9999 FEW060 BKN070 09/05 Q1018 NOSIG

TAF TAF LIRP
Valide du 17 à 12h jusqu'au 18 à 12h UTC


171100Z 1712/1812 07010KT 9999 BKN070
BECMG 1714/1716 09006KT 9999 NSC
TEMPO 1723/1806 5000 BR
Pas de NOTAMs connus pour ce terrain.
1 SIGMET publié pour la FIR Milano (LIMM) :
 
Turbulence forte
LIMM SIGMET 3 VALID 171605/171805 LIIP
LIMM MILANO FIR SEV TURB FCST N OF LINE N4448 E00650 - N4458 E01315 ABV FL050 STNR NC=



MET'MAP, la Météo Aéronautique d'un coup d'oeil ! - Copyright ORBIFLY Décembre 2007 - Disclaimer

ORBIFLY MET'MAP TEAM :

Programmation & Développement : Alexandra Zaïnal
Conception & Développement : Baudouin d'Aumeries
Co-Programmation & Développement : Marc-Olivier Méhu
Soutien technique & logistique : Manuel Goepfert

Contact : metmap@orbifly.com




SOURCES & CREDITS :

   NOAA